sensor_id;sensor_type;location;lat;lon;timestamp;pressure;altitude;pressure_sealevel;temperature;humidity
32789;BME280;19141;48.980;8.410;2023-04-07T04:22:34;100101.16;;;6.47;100.00
32789;BME280;19141;48.980;8.410;2023-04-07T04:25:00;100098.34;;;6.49;100.00
32789;BME280;19141;48.980;8.410;2023-04-07T04:27:27;100094.03;;;6.48;100.00
32789;BME280;19141;48.980;8.410;2023-04-07T04:30:00;100101.06;;;6.57;100.00
32789;BME280;19141;48.980;8.410;2023-04-07T04:32:40;100099.56;;;6.55;100.00
32789;BME280;19141;48.980;8.410;2023-04-07T04:35:07;100102.38;;;6.53;100.00
32789;BME280;19141;48.980;8.410;2023-04-07T04:37:38;100113.56;;;6.47;100.00
32789;BME280;19141;48.980;8.410;2023-04-07T04:40:08;100113.31;;;6.40;100.00
32789;BME280;19141;48.980;8.410;2023-04-07T04:42:35;100109.84;;;6.40;100.00
32789;BME280;19141;48.980;8.410;2023-04-07T04:45:02;100112.19;;;6.43;100.00
32789;BME280;19141;48.980;8.410;2023-04-07T04:47:30;100112.84;;;6.45;100.00
32789;BME280;19141;48.980;8.410;2023-04-07T04:49:56;100105.75;;;6.45;100.00
32789;BME280;19141;48.980;8.410;2023-04-07T04:52:23;100104.63;;;6.48;100.00
32789;BME280;19141;48.980;8.410;2023-04-07T04:54:49;100106.84;;;6.52;100.00
32789;BME280;19141;48.980;8.410;2023-04-07T04:57:15;100101.06;;;6.57;100.00
32789;BME280;19141;48.980;8.410;2023-04-07T04:59:41;100104.41;;;6.59;100.00
32789;BME280;19141;48.980;8.410;2023-04-07T05:02:07;100103.44;;;6.60;100.00
32789;BME280;19141;48.980;8.410;2023-04-07T05:04:33;100100.47;;;6.63;100.00
32789;BME280;19141;48.980;8.410;2023-04-07T05:07:08;100100.31;;;6.65;100.00
32789;BME280;19141;48.980;8.410;2023-04-07T05:09:34;100102.50;;;6.69;100.00
32789;BME280;19141;48.980;8.410;2023-04-07T05:12:00;100106.81;;;6.70;100.00
32789;BME280;19141;48.980;8.410;2023-04-07T05:14:29;100107.50;;;6.72;100.00
32789;BME280;19141;48.980;8.410;2023-04-07T05:17:02;100107.19;;;6.75;100.00
32789;BME280;19141;48.980;8.410;2023-04-07T05:19:28;100106.53;;;6.73;100.00
32789;BME280;19141;48.980;8.410;2023-04-07T05:21:58;100110.00;;;6.74;100.00
32789;BME280;19141;48.980;8.410;2023-04-07T05:24:27;100104.16;;;6.70;100.00
32789;BME280;19141;48.980;8.410;2023-04-07T05:26:56;100107.19;;;6.75;100.00
32789;BME280;19141;48.980;8.410;2023-04-07T05:29:22;100106.03;;;6.78;100.00
32789;BME280;19141;48.980;8.410;2023-04-07T05:31:47;100100.91;;;6.76;100.00
32789;BME280;19141;48.980;8.410;2023-04-07T05:34:15;100116.91;;;6.85;100.00
32789;BME280;19141;48.980;8.410;2023-04-07T05:36:47;100116.91;;;6.85;100.00
32789;BME280;19141;48.980;8.410;2023-04-07T05:39:14;100111.94;;;6.90;100.00
32789;BME280;19141;48.980;8.410;2023-04-07T05:41:39;100113.47;;;6.92;100.00
32789;BME280;19141;48.980;8.410;2023-04-07T05:44:05;100113.31;;;6.94;100.00
32789;BME280;19141;48.980;8.410;2023-04-07T05:46:34;100114.81;;;6.96;100.00
32789;BME280;19141;48.980;8.410;2023-04-07T05:48:59;100115.34;;;7.00;100.00
32789;BME280;19141;48.980;8.410;2023-04-07T05:51:25;100116.03;;;7.02;100.00
32789;BME280;19141;48.980;8.410;2023-04-07T05:53:53;100109.44;;;7.06;100.00
32789;BME280;19141;48.980;8.410;2023-04-07T05:56:21;100112.09;;;7.06;100.00
32789;BME280;19141;48.980;8.410;2023-04-07T05:58:47;100113.59;;;7.08;100.00
32789;BME280;19141;48.980;8.410;2023-04-07T06:01:14;100115.41;;;7.08;100.00
32789;BME280;19141;48.980;8.410;2023-04-07T06:03:40;100117.44;;;7.14;100.00
32789;BME280;19141;48.980;8.410;2023-04-07T06:06:16;100116.00;;;7.20;100.00
32789;BME280;19141;48.980;8.410;2023-04-07T06:08:43;100116.66;;;7.22;100.00
32789;BME280;19141;48.980;8.410;2023-04-07T06:11:10;100116.06;;;7.28;100.00
32789;BME280;19141;48.980;8.410;2023-04-07T06:13:36;100117.25;;;7.33;100.00
32789;BME280;19141;48.980;8.410;2023-04-07T06:16:01;100126.44;;;7.47;100.00
32789;BME280;19141;48.980;8.410;2023-04-07T06:18:27;100121.81;;;7.49;100.00
32789;BME280;19141;48.980;8.410;2023-04-07T06:20:52;100119.13;;;7.67;100.00
32789;BME280;19141;48.980;8.410;2023-04-07T06:23:17;100119.22;;;7.83;100.00
32789;BME280;19141;48.980;8.410;2023-04-07T06:25:43;100115.59;;;7.93;100.00
32789;BME280;19141;48.980;8.410;2023-04-07T06:28:09;100111.13;;;8.01;100.00
32789;BME280;19141;48.980;8.410;2023-04-07T06:30:34;100120.28;;;8.07;100.00
32789;BME280;19141;48.980;8.410;2023-04-07T06:33:00;100129.59;;;8.11;100.00
32789;BME280;19141;48.980;8.410;2023-04-07T06:35:25;100120.66;;;8.20;100.00
32789;BME280;19141;48.980;8.410;2023-04-07T06:37:52;100119.53;;;8.23;100.00
32789;BME280;19141;48.980;8.410;2023-04-07T06:40:17;100126.16;;;8.27;100.00
32789;BME280;19141;48.980;8.410;2023-04-07T06:42:42;100113.59;;;8.29;100.00
32789;BME280;19141;48.980;8.410;2023-04-07T06:45:22;100119.22;;;8.34;100.00
32789;BME280;19141;48.980;8.410;2023-04-07T06:47:47;100116.13;;;8.38;100.00
32789;BME280;19141;48.980;8.410;2023-04-07T06:50:12;100112.78;;;8.36;99.15
32789;BME280;19141;48.980;8.410;2023-04-07T06:52:38;100112.81;;;8.45;98.97
32789;BME280;19141;48.980;8.410;2023-04-07T06:55:03;100115.47;;;8.45;99.01
32789;BME280;19141;48.980;8.410;2023-04-07T06:57:29;100118.47;;;8.50;99.20
32789;BME280;19141;48.980;8.410;2023-04-07T06:59:54;100113.16;;;8.66;98.07
32789;BME280;19141;48.980;8.410;2023-04-07T07:02:20;100120.34;;;8.82;94.87
32789;BME280;19141;48.980;8.410;2023-04-07T07:04:45;100117.38;;;9.01;95.86
32789;BME280;19141;48.980;8.410;2023-04-07T07:07:11;100123.31;;;9.28;98.87
32789;BME280;19141;48.980;8.410;2023-04-07T07:09:36;100121.31;;;9.46;96.97
32789;BME280;19141;48.980;8.410;2023-04-07T07:12:01;100124.75;;;9.63;94.74
32789;BME280;19141;48.980;8.410;2023-04-07T07:14:27;100129.91;;;9.72;91.87
32789;BME280;19141;48.980;8.410;2023-04-07T07:16:52;100122.53;;;9.83;91.05
32789;BME280;19141;48.980;8.410;2023-04-07T07:19:18;100123.31;;;9.99;89.35
32789;BME280;19141;48.980;8.410;2023-04-07T07:21:43;100126.56;;;10.26;86.45
32789;BME280;19141;48.980;8.410;2023-04-07T07:24:09;100121.81;;;10.44;86.32
32789;BME280;19141;48.980;8.410;2023-04-07T07:26:34;100119.03;;;10.60;83.34
32789;BME280;19141;48.980;8.410;2023-04-07T07:29:00;100117.75;;;10.56;84.59
32789;BME280;19141;48.980;8.410;2023-04-07T07:31:25;100111.09;;;10.75;86.00
32789;BME280;19141;48.980;8.410;2023-04-07T07:33:51;100109.06;;;11.00;83.00
32789;BME280;19141;48.980;8.410;2023-04-07T07:36:17;100111.09;;;10.75;81.80
32789;BME280;19141;48.980;8.410;2023-04-07T07:38:42;100099.72;;;10.81;83.00
32789;BME280;19141;48.980;8.410;2023-04-07T07:41:07;100108.78;;;10.95;84.51
32789;BME280;19141;48.980;8.410;2023-04-07T07:43:33;100116.13;;;10.93;83.78
32789;BME280;19141;48.980;8.410;2023-04-07T07:45:59;100117.25;;;10.99;82.71
32789;BME280;19141;48.980;8.410;2023-04-07T07:48:24;100114.19;;;11.10;79.95
32789;BME280;19141;48.980;8.410;2023-04-07T07:50:50;100121.00;;;10.90;82.52
32789;BME280;19141;48.980;8.410;2023-04-07T07:53:17;100117.53;;;10.89;81.56
32789;BME280;19141;48.980;8.410;2023-04-07T07:55:42;100124.72;;;10.80;82.62
32789;BME280;19141;48.980;8.410;2023-04-07T07:58:08;100123.19;;;10.86;82.28
32789;BME280;19141;48.980;8.410;2023-04-07T08:00:33;100126.38;;;10.81;82.95
32789;BME280;19141;48.980;8.410;2023-04-07T08:02:58;100125.84;;;10.86;82.82
32789;BME280;19141;48.980;8.410;2023-04-07T08:05:24;100130.78;;;10.97;84.49
32789;BME280;19141;48.980;8.410;2023-04-07T08:07:51;100131.00;;;11.10;85.84
32789;BME280;19141;48.980;8.410;2023-04-07T08:10:16;100137.09;;;11.19;83.03
32789;BME280;19141;48.980;8.410;2023-04-07T08:12:44;100146.59;;;11.36;84.59
32789;BME280;19141;48.980;8.410;2023-04-07T08:15:10;100135.88;;;11.59;83.32
32789;BME280;19141;48.980;8.410;2023-04-07T08:17:35;100144.78;;;11.66;83.40
32789;BME280;19141;48.980;8.410;2023-04-07T08:20:01;100136.06;;;11.73;82.46
32789;BME280;19141;48.980;8.410;2023-04-07T08:22:28;100140.16;;;11.98;82.50
32789;BME280;19141;48.980;8.410;2023-04-07T08:24:53;100141.63;;;12.01;78.00
32789;BME280;19141;48.980;8.410;2023-04-07T08:27:19;100142.53;;;12.22;79.89
32789;BME280;19141;48.980;8.410;2023-04-07T08:32:12;100140.03;;;12.36;77.92
32789;BME280;19141;48.980;8.410;2023-04-07T08:34:38;100140.38;;;12.47;79.24
32789;BME280;19141;48.980;8.410;2023-04-07T08:37:03;100146.16;;;12.51;75.81
32789;BME280;19141;48.980;8.410;2023-04-07T08:39:28;100143.06;;;12.69;74.07
32789;BME280;19141;48.980;8.410;2023-04-07T08:41:55;100154.41;;;12.92;75.22
32789;BME280;19141;48.980;8.410;2023-04-07T08:44:21;100144.16;;;12.96;75.17
32789;BME280;19141;48.980;8.410;2023-04-07T08:46:50;100156.91;;;12.94;73.92
32789;BME280;19141;48.980;8.410;2023-04-07T08:49:16;100151.75;;;12.92;70.82
32789;BME280;19141;48.980;8.410;2023-04-07T08:51:46;100150.44;;;13.10;70.40
32789;BME280;19141;48.980;8.410;2023-04-07T08:54:14;100149.00;;;12.86;74.10
32789;BME280;19141;48.980;8.410;2023-04-07T08:56:40;100155.34;;;12.63;77.02
32789;BME280;19141;48.980;8.410;2023-04-07T08:59:07;100153.53;;;12.49;76.04
32789;BME280;19141;48.980;8.410;2023-04-07T09:01:34;100155.72;;;12.60;74.41
32789;BME280;19141;48.980;8.410;2023-04-07T09:04:04;100155.41;;;12.70;73.20
32789;BME280;19141;48.980;8.410;2023-04-07T09:06:30;100152.69;;;12.48;74.42
32789;BME280;19141;48.980;8.410;2023-04-07T09:09:00;100162.50;;;12.41;74.83
32789;BME280;19141;48.980;8.410;2023-04-07T09:11:27;100156.94;;;12.43;76.29
32789;BME280;19141;48.980;8.410;2023-04-07T09:13:53;100166.88;;;12.49;77.49
32789;BME280;19141;48.980;8.410;2023-04-07T09:16:19;100164.59;;;12.46;75.56
32789;BME280;19141;48.980;8.410;2023-04-07T09:18:45;100159.91;;;12.48;73.10
32789;BME280;19141;48.980;8.410;2023-04-07T09:21:10;100165.34;;;12.40;72.65
32789;BME280;19141;48.980;8.410;2023-04-07T09:23:38;100166.78;;;12.57;72.77
32789;BME280;19141;48.980;8.410;2023-04-07T09:26:31;100165.94;;;12.57;72.98
32789;BME280;19141;48.980;8.410;2023-04-07T09:28:59;100166.09;;;12.70;72.00
32789;BME280;19141;48.980;8.410;2023-04-07T09:31:46;100169.72;;;12.84;69.99
32789;BME280;19141;48.980;8.410;2023-04-07T09:34:30;100167.19;;;12.75;70.26
32789;BME280;19141;48.980;8.410;2023-04-07T09:36:56;100165.88;;;12.50;70.22
32789;BME280;19141;48.980;8.410;2023-04-07T09:39:22;100162.03;;;13.17;71.95
32789;BME280;19141;48.980;8.410;2023-04-07T09:41:47;100166.28;;;13.82;71.24
32789;BME280;19141;48.980;8.410;2023-04-07T09:44:13;100152.56;;;13.92;64.15
32789;BME280;19141;48.980;8.410;2023-04-07T09:46:54;100171.72;;;13.95;63.54
32789;BME280;19141;48.980;8.410;2023-04-07T09:49:21;100180.47;;;13.76;63.02
32789;BME280;19141;48.980;8.410;2023-04-07T09:52:01;100167.28;;;14.09;68.70
32789;BME280;19141;48.980;8.410;2023-04-07T09:54:35;100172.25;;;14.60;61.68
32789;BME280;19141;48.980;8.410;2023-04-07T09:57:03;100163.63;;;14.71;59.59
32789;BME280;19141;48.980;8.410;2023-04-07T09:59:30;100166.09;;;14.73;57.01
32789;BME280;19141;48.980;8.410;2023-04-07T10:01:55;100165.13;;;14.87;57.89
32789;BME280;19141;48.980;8.410;2023-04-07T10:04:23;100156.72;;;15.56;60.10
32789;BME280;19141;48.980;8.410;2023-04-07T10:06:49;100166.00;;;15.54;56.73
32789;BME280;19141;48.980;8.410;2023-04-07T10:09:14;100164.53;;;15.51;56.03
32789;BME280;19141;48.980;8.410;2023-04-07T10:11:41;100167.41;;;14.97;56.54
32789;BME280;19141;48.980;8.410;2023-04-07T10:14:08;100176.28;;;15.04;57.97
32789;BME280;19141;48.980;8.410;2023-04-07T10:16:38;100173.47;;;15.78;56.30
32789;BME280;19141;48.980;8.410;2023-04-07T10:19:06;100168.19;;;16.16;53.56
32789;BME280;19141;48.980;8.410;2023-04-07T10:21:38;100169.94;;;16.49;51.72
32789;BME280;19141;48.980;8.410;2023-04-07T10:26:53;100166.94;;;16.77;50.38
32789;BME280;19141;48.980;8.410;2023-04-07T10:29:22;100152.47;;;17.09;51.13
32789;BME280;19141;48.980;8.410;2023-04-07T10:31:48;100171.53;;;17.01;48.60
32789;BME280;19141;48.980;8.410;2023-04-07T10:34:14;100168.50;;;17.23;50.31
32789;BME280;19141;48.980;8.410;2023-04-07T10:37:09;100160.13;;;16.74;50.33
32789;BME280;19141;48.980;8.410;2023-04-07T10:39:35;100156.28;;;16.50;50.73
32789;BME280;19141;48.980;8.410;2023-04-07T10:42:02;100161.19;;;16.60;53.03
32789;BME280;19141;48.980;8.410;2023-04-07T10:44:46;100157.00;;;17.34;52.07
32789;BME280;19141;48.980;8.410;2023-04-07T10:47:12;100160.00;;;17.76;51.36
32789;BME280;19141;48.980;8.410;2023-04-07T10:49:38;100162.91;;;17.24;51.04
32789;BME280;19141;48.980;8.410;2023-04-07T10:54:39;100157.03;;;18.02;49.23
32789;BME280;19141;48.980;8.410;2023-04-07T10:57:05;100166.31;;;18.43;48.01
32789;BME280;19141;48.980;8.410;2023-04-07T10:59:33;100136.84;;;18.60;46.22
32789;BME280;19141;48.980;8.410;2023-04-07T11:04:45;100162.41;;;17.84;49.06
32789;BME280;19141;48.980;8.410;2023-04-07T11:07:12;100162.78;;;17.13;49.01
32789;BME280;19141;48.980;8.410;2023-04-07T11:09:39;100155.81;;;16.60;49.09
32789;BME280;19141;48.980;8.410;2023-04-07T11:12:05;100159.44;;;16.34;51.60
32789;BME280;19141;48.980;8.410;2023-04-07T11:14:31;100158.13;;;16.05;52.06
32789;BME280;19141;48.980;8.410;2023-04-07T11:16:58;100149.91;;;15.67;51.30
32789;BME280;19141;48.980;8.410;2023-04-07T11:19:25;100150.13;;;15.45;51.92
32789;BME280;19141;48.980;8.410;2023-04-07T11:22:15;100148.66;;;15.23;52.61
32789;BME280;19141;48.980;8.410;2023-04-07T11:24:40;100151.53;;;15.61;52.33
32789;BME280;19141;48.980;8.410;2023-04-07T11:27:11;100148.53;;;16.22;50.95
32789;BME280;19141;48.980;8.410;2023-04-07T11:29:37;100151.47;;;16.14;50.05
32789;BME280;19141;48.980;8.410;2023-04-07T11:32:03;100151.00;;;17.07;46.81
32789;BME280;19141;48.980;8.410;2023-04-07T11:34:35;100155.63;;;17.00;45.97
32789;BME280;19141;48.980;8.410;2023-04-07T11:37:20;100148.16;;;17.02;44.51
32789;BME280;19141;48.980;8.410;2023-04-07T11:39:57;100151.28;;;16.99;46.19
32789;BME280;19141;48.980;8.410;2023-04-07T11:42:38;100152.81;;;16.81;45.84
32789;BME280;19141;48.980;8.410;2023-04-07T11:45:05;100155.13;;;16.78;46.82
32789;BME280;19141;48.980;8.410;2023-04-07T11:47:39;100162.88;;;16.99;47.03
32789;BME280;19141;48.980;8.410;2023-04-07T11:50:06;100156.34;;;17.63;47.05
32789;BME280;19141;48.980;8.410;2023-04-07T11:52:42;100164.56;;;18.49;44.93
32789;BME280;19141;48.980;8.410;2023-04-07T11:55:21;100160.75;;;19.28;43.13
32789;BME280;19141;48.980;8.410;2023-04-07T11:57:49;100163.59;;;19.33;40.46
32789;BME280;19141;48.980;8.410;2023-04-07T12:00:18;100166.88;;;19.23;40.97
32789;BME280;19141;48.980;8.410;2023-04-07T12:02:44;100159.97;;;18.86;43.84
32789;BME280;19141;48.980;8.410;2023-04-07T12:05:10;100151.28;;;20.08;41.95
32789;BME280;19141;48.980;8.410;2023-04-07T12:07:36;100145.91;;;19.61;42.27
32789;BME280;19141;48.980;8.410;2023-04-07T12:10:19;100168.19;;;19.33;44.10
32789;BME280;19141;48.980;8.410;2023-04-07T12:12:45;100161.16;;;19.02;42.06
32789;BME280;19141;48.980;8.410;2023-04-07T12:15:11;100159.47;;;19.19;41.11
32789;BME280;19141;48.980;8.410;2023-04-07T12:17:36;100159.91;;;19.16;42.37
32789;BME280;19141;48.980;8.410;2023-04-07T12:20:01;100158.69;;;19.53;40.31
32789;BME280;19141;48.980;8.410;2023-04-07T12:22:27;100151.16;;;19.56;41.70
32789;BME280;19141;48.980;8.410;2023-04-07T12:24:52;100156.09;;;19.47;39.93
32789;BME280;19141;48.980;8.410;2023-04-07T12:27:18;100149.41;;;18.96;39.73
32789;BME280;19141;48.980;8.410;2023-04-07T12:29:43;100153.13;;;19.25;40.06
32789;BME280;19141;48.980;8.410;2023-04-07T12:32:08;100142.97;;;18.97;43.47
32789;BME280;19141;48.980;8.410;2023-04-07T12:34:34;100141.06;;;19.39;42.83
32789;BME280;19141;48.980;8.410;2023-04-07T12:37:01;100154.16;;;17.79;43.84
32789;BME280;19141;48.980;8.410;2023-04-07T12:39:27;100161.81;;;18.18;41.22
32789;BME280;19141;48.980;8.410;2023-04-07T12:41:52;100169.44;;;19.18;41.08
32789;BME280;19141;48.980;8.410;2023-04-07T12:44:18;100167.06;;;19.64;42.41
32789;BME280;19141;48.980;8.410;2023-04-07T12:46:44;100177.31;;;18.60;45.03
32789;BME280;19141;48.980;8.410;2023-04-07T12:49:09;100177.22;;;16.87;49.67
32789;BME280;19141;48.980;8.410;2023-04-07T12:51:35;100166.63;;;15.49;52.96
32789;BME280;19141;48.980;8.410;2023-04-07T12:54:01;100175.91;;;15.20;54.88
32789;BME280;19141;48.980;8.410;2023-04-07T12:56:27;100179.56;;;14.92;58.50
32789;BME280;19141;48.980;8.410;2023-04-07T12:58:53;100180.84;;;15.03;58.61
32789;BME280;19141;48.980;8.410;2023-04-07T13:01:19;100175.94;;;14.52;60.64
32789;BME280;19141;48.980;8.410;2023-04-07T13:03:44;100186.28;;;14.55;61.49
32789;BME280;19141;48.980;8.410;2023-04-07T13:06:10;100182.03;;;13.98;65.77
32789;BME280;19141;48.980;8.410;2023-04-07T13:08:35;100191.78;;;14.06;65.33
32789;BME280;19141;48.980;8.410;2023-04-07T13:11:01;100195.78;;;14.23;63.22
32789;BME280;19141;48.980;8.410;2023-04-07T13:13:26;100186.94;;;13.95;64.64
32789;BME280;19141;48.980;8.410;2023-04-07T13:15:52;100191.16;;;13.48;70.56
32789;BME280;19141;48.980;8.410;2023-04-07T13:18:17;100194.78;;;13.40;77.51
32789;BME280;19141;48.980;8.410;2023-04-07T13:20:43;100205.38;;;12.91;80.29
32789;BME280;19141;48.980;8.410;2023-04-07T13:23:08;100199.78;;;12.86;80.10
32789;BME280;19141;48.980;8.410;2023-04-07T13:25:34;100203.72;;;12.90;84.98
32789;BME280;19141;48.980;8.410;2023-04-07T13:28:00;100200.44;;;12.88;85.75
32789;BME280;19141;48.980;8.410;2023-04-07T13:30:25;100203.50;;;12.70;85.71
32789;BME280;19141;48.980;8.410;2023-04-07T13:32:51;100196.59;;;12.97;80.32
32789;BME280;19141;48.980;8.410;2023-04-07T13:35:17;100201.31;;;12.95;85.51
32789;BME280;19141;48.980;8.410;2023-04-07T13:37:43;100202.97;;;12.96;83.22
32789;BME280;19141;48.980;8.410;2023-04-07T13:40:09;100199.34;;;13.03;84.63
32789;BME280;19141;48.980;8.410;2023-04-07T13:42:36;100200.31;;;12.96;83.82
32789;BME280;19141;48.980;8.410;2023-04-07T13:45:02;100200.16;;;12.83;84.63
32789;BME280;19141;48.980;8.410;2023-04-07T13:47:27;100207.06;;;12.92;84.00
32789;BME280;19141;48.980;8.410;2023-04-07T13:49:58;100202.94;;;12.74;79.96
32789;BME280;19141;48.980;8.410;2023-04-07T13:52:24;100196.59;;;12.75;80.53
32789;BME280;19141;48.980;8.410;2023-04-07T13:54:50;100208.16;;;12.61;83.27
32789;BME280;19141;48.980;8.410;2023-04-07T13:57:15;100204.03;;;12.80;80.14
32789;BME280;19141;48.980;8.410;2023-04-07T13:59:47;100203.84;;;12.82;83.93
32789;BME280;19141;48.980;8.410;2023-04-07T14:02:13;100199.97;;;12.84;83.53
32789;BME280;19141;48.980;8.410;2023-04-07T14:04:39;100198.75;;;12.65;78.75
32789;BME280;19141;48.980;8.410;2023-04-07T14:07:04;100195.69;;;12.68;78.41
32789;BME280;19141;48.980;8.410;2023-04-07T14:09:30;100194.19;;;13.02;76.98
32789;BME280;19141;48.980;8.410;2023-04-07T14:11:56;100201.97;;;13.18;76.99
32789;BME280;19141;48.980;8.410;2023-04-07T14:14:22;100202.69;;;13.27;79.94
32789;BME280;19141;48.980;8.410;2023-04-07T14:16:47;100204.94;;;13.45;80.91
32789;BME280;19141;48.980;8.410;2023-04-07T14:19:19;100194.97;;;13.60;76.58
32789;BME280;19141;48.980;8.410;2023-04-07T14:21:45;100205.84;;;13.87;74.00
32789;BME280;19141;48.980;8.410;2023-04-07T14:24:10;100201.97;;;13.61;76.65
32789;BME280;19141;48.980;8.410;2023-04-07T14:26:36;100199.22;;;13.76;74.71
32789;BME280;19141;48.980;8.410;2023-04-07T14:29:01;100203.28;;;13.72;75.21
32789;BME280;19141;48.980;8.410;2023-04-07T14:31:28;100199.53;;;13.38;77.08
32789;BME280;19141;48.980;8.410;2023-04-07T14:33:53;100207.84;;;13.28;75.47
32789;BME280;19141;48.980;8.410;2023-04-07T14:36:19;100194.22;;;13.23;78.15
32789;BME280;19141;48.980;8.410;2023-04-07T14:38:45;100198.59;;;13.52;76.90
32789;BME280;19141;48.980;8.410;2023-04-07T14:41:11;100196.31;;;13.49;75.32
32789;BME280;19141;48.980;8.410;2023-04-07T14:43:37;100199.63;;;13.51;75.91
32789;BME280;19141;48.980;8.410;2023-04-07T14:46:04;100196.69;;;13.46;74.10
32789;BME280;19141;48.980;8.410;2023-04-07T14:48:29;100193.00;;;13.47;74.20
32789;BME280;19141;48.980;8.410;2023-04-07T14:50:54;100190.78;;;13.51;73.58
32789;BME280;19141;48.980;8.410;2023-04-07T14:53:20;100196.03;;;13.66;75.50
32789;BME280;19141;48.980;8.410;2023-04-07T14:55:45;100194.34;;;13.58;73.00
32789;BME280;19141;48.980;8.410;2023-04-07T14:58:11;100200.22;;;13.75;72.99
32789;BME280;19141;48.980;8.410;2023-04-07T15:00:36;100207.38;;;13.68;71.78
32789;BME280;19141;48.980;8.410;2023-04-07T15:03:01;100210.69;;;13.70;73.29
32789;BME280;19141;48.980;8.410;2023-04-07T15:05:28;100201.84;;;13.48;74.96
32789;BME280;19141;48.980;8.410;2023-04-07T15:07:54;100208.78;;;13.64;75.60
32789;BME280;19141;48.980;8.410;2023-04-07T15:10:20;100206.94;;;13.43;75.21
32789;BME280;19141;48.980;8.410;2023-04-07T15:12:45;100221.13;;;13.37;74.16
32789;BME280;19141;48.980;8.410;2023-04-07T15:15:14;100216.19;;;13.40;76.53
32789;BME280;19141;48.980;8.410;2023-04-07T15:17:40;100223.63;;;13.66;74.01
32789;BME280;19141;48.980;8.410;2023-04-07T15:20:06;100225.03;;;13.62;74.55
32789;BME280;19141;48.980;8.410;2023-04-07T15:22:32;100234.22;;;13.53;73.99
32789;BME280;19141;48.980;8.410;2023-04-07T15:24:57;100234.19;;;13.74;74.45
32789;BME280;19141;48.980;8.410;2023-04-07T15:27:23;100237.47;;;13.70;72.52
32789;BME280;19141;48.980;8.410;2023-04-07T15:29:48;100246.09;;;13.44;76.29
32789;BME280;19141;48.980;8.410;2023-04-07T15:32:14;100238.19;;;13.57;74.30
32789;BME280;19141;48.980;8.410;2023-04-07T15:34:39;100249.72;;;13.57;74.11
32789;BME280;19141;48.980;8.410;2023-04-07T15:37:04;100247.19;;;13.13;76.93
32789;BME280;19141;48.980;8.410;2023-04-07T15:39:30;100246.88;;;13.23;75.97
32789;BME280;19141;48.980;8.410;2023-04-07T15:41:55;100263.47;;;12.82;77.81
32789;BME280;19141;48.980;8.410;2023-04-07T15:44:21;100247.91;;;12.86;77.63
32789;BME280;19141;48.980;8.410;2023-04-07T15:46:46;100251.34;;;12.80;79.51
32789;BME280;19141;48.980;8.410;2023-04-07T15:49:12;100261.19;;;12.79;81.12
32789;BME280;19141;48.980;8.410;2023-04-07T15:51:44;100256.50;;;12.52;82.19
32789;BME280;19141;48.980;8.410;2023-04-07T15:54:09;100262.44;;;12.47;82.13
32789;BME280;19141;48.980;8.410;2023-04-07T15:56:35;100262.25;;;12.48;82.32
32789;BME280;19141;48.980;8.410;2023-04-07T15:59:00;100258.44;;;12.58;81.02
32789;BME280;19141;48.980;8.410;2023-04-07T16:01:26;100263.53;;;12.38;81.85
32789;BME280;19141;48.980;8.410;2023-04-07T16:03:52;100265.28;;;12.31;81.42
32789;BME280;19141;48.980;8.410;2023-04-07T16:06:17;100261.78;;;12.30;82.36
32789;BME280;19141;48.980;8.410;2023-04-07T16:08:42;100274.19;;;12.08;84.80
32789;BME280;19141;48.980;8.410;2023-04-07T16:11:08;100269.97;;;12.14;83.48
32789;BME280;19141;48.980;8.410;2023-04-07T16:13:33;100275.28;;;11.99;85.29
32789;BME280;19141;48.980;8.410;2023-04-07T16:15:58;100277.84;;;11.92;84.94
32789;BME280;19141;48.980;8.410;2023-04-07T16:18:24;100278.03;;;11.91;83.70
32789;BME280;19141;48.980;8.410;2023-04-07T16:20:50;100277.91;;;11.84;84.36
32789;BME280;19141;48.980;8.410;2023-04-07T16:23:15;100274.81;;;11.73;86.05
32789;BME280;19141;48.980;8.410;2023-04-07T16:25:40;100287.03;;;11.67;85.19
32789;BME280;19141;48.980;8.410;2023-04-07T16:28:06;100285.97;;;11.53;85.89
32789;BME280;19141;48.980;8.410;2023-04-07T16:30:31;100290.81;;;11.35;86.66
32789;BME280;19141;48.980;8.410;2023-04-07T16:32:57;100291.44;;;11.37;86.92
32789;BME280;19141;48.980;8.410;2023-04-07T16:35:24;100293.09;;;11.15;88.67
32789;BME280;19141;48.980;8.410;2023-04-07T16:37:50;100293.34;;;11.28;87.63
32789;BME280;19141;48.980;8.410;2023-04-07T16:40:18;100302.94;;;11.37;87.20
32789;BME280;19141;48.980;8.410;2023-04-07T16:42:45;100300.53;;;11.20;87.84
32789;BME280;19141;48.980;8.410;2023-04-07T16:45:10;100308.22;;;11.23;88.34
32789;BME280;19141;48.980;8.410;2023-04-07T16:47:36;100303.78;;;11.07;89.97
32789;BME280;19141;48.980;8.410;2023-04-07T16:50:02;100292.41;;;10.82;91.84
32789;BME280;19141;48.980;8.410;2023-04-07T16:52:30;100297.28;;;10.78;92.59
32789;BME280;19141;48.980;8.410;2023-04-07T16:54:56;100315.53;;;10.90;92.76
32789;BME280;19141;48.980;8.410;2023-04-07T16:57:22;100312.06;;;10.81;93.67
32789;BME280;19141;48.980;8.410;2023-04-07T16:59:47;100315.19;;;10.93;93.03
32789;BME280;19141;48.980;8.410;2023-04-07T17:02:13;100318.38;;;10.88;94.31
32789;BME280;19141;48.980;8.410;2023-04-07T17:04:41;100315.69;;;10.88;94.39
32789;BME280;19141;48.980;8.410;2023-04-07T17:07:07;100320.75;;;10.83;94.75
32789;BME280;19141;48.980;8.410;2023-04-07T17:09:33;100324.75;;;10.79;95.09
32789;BME280;19141;48.980;8.410;2023-04-07T17:11:59;100326.53;;;10.86;95.71
32789;BME280;19141;48.980;8.410;2023-04-07T17:14:26;100333.06;;;10.84;96.50
32789;BME280;19141;48.980;8.410;2023-04-07T17:16:51;100332.22;;;10.83;96.70
32789;BME280;19141;48.980;8.410;2023-04-07T17:19:16;100335.91;;;10.82;96.78
32789;BME280;19141;48.980;8.410;2023-04-07T17:21:42;100330.06;;;10.79;96.01